createdAt,value
2022-12-06T00:01:15.848Z,-7.97
2022-12-06T00:03:43.162Z,-7.78
2022-12-06T00:06:15.239Z,-7.61
2022-12-06T00:08:42.083Z,-7.48
2022-12-06T00:11:10.357Z,-7.38
2022-12-06T00:13:37.421Z,-7.36
2022-12-06T00:16:05.535Z,-7.43
2022-12-06T00:18:33.382Z,-7.50
2022-12-06T00:21:10.626Z,-7.54
2022-12-06T00:23:38.625Z,-7.55
2022-12-06T00:26:05.805Z,-7.59
2022-12-06T00:28:33.159Z,-7.62
2022-12-06T00:31:00.892Z,-7.67
2022-12-06T00:33:28.040Z,-7.73
2022-12-06T00:36:02.493Z,-7.73
2022-12-06T00:38:29.447Z,-7.68
2022-12-06T00:41:06.124Z,-7.60
2022-12-06T00:43:33.085Z,-7.49
2022-12-06T00:46:00.366Z,-7.41
2022-12-06T00:48:27.361Z,-7.31
2022-12-06T00:50:54.306Z,-7.27
2022-12-06T00:53:20.994Z,-7.28
2022-12-06T00:55:47.842Z,-7.32
2022-12-06T00:58:14.627Z,-7.36
2022-12-06T01:00:41.305Z,-7.44
2022-12-06T01:03:08.164Z,-7.52
2022-12-06T01:05:38.835Z,-7.61
2022-12-06T01:08:05.535Z,-7.71
2022-12-06T01:10:32.297Z,-7.85
2022-12-06T01:12:59.129Z,-7.98
2022-12-06T01:15:26.336Z,-8.07
2022-12-06T01:17:52.972Z,-8.10
2022-12-06T01:20:19.699Z,-8.08
2022-12-06T01:22:46.325Z,-8.01
2022-12-06T01:25:12.937Z,-7.94
2022-12-06T01:27:39.593Z,-7.85
2022-12-06T01:30:06.911Z,-7.74
2022-12-06T01:32:33.549Z,-7.62
2022-12-06T01:35:00.274Z,-7.51
2022-12-06T01:37:26.890Z,-7.44
2022-12-06T01:39:53.497Z,-7.38
2022-12-06T01:42:20.185Z,-7.36
2022-12-06T01:44:49.432Z,-7.34
2022-12-06T01:47:21.129Z,-7.37
2022-12-06T01:49:51.414Z,-7.45
2022-12-06T01:52:18.057Z,-7.54
2022-12-06T01:54:44.766Z,-7.62
2022-12-06T01:57:11.811Z,-7.73
2022-12-06T01:59:38.579Z,-7.86
2022-12-06T02:02:05.342Z,-7.99
2022-12-06T02:04:32.110Z,-8.08
2022-12-06T02:06:59.114Z,-8.18
2022-12-06T02:09:26.805Z,-8.25
2022-12-06T02:11:53.505Z,-8.29
2022-12-06T02:14:22.988Z,-8.34
2022-12-06T02:17:08.784Z,-8.40
2022-12-06T02:19:44.564Z,-8.46
2022-12-06T02:22:14.373Z,-8.51
2022-12-06T02:24:55.972Z,-8.56
2022-12-06T02:27:50.254Z,-8.60
2022-12-06T02:30:39.727Z,-8.66
2022-12-06T02:33:08.241Z,-8.73
2022-12-06T02:35:37.598Z,-8.80
2022-12-06T02:38:23.013Z,-8.84
2022-12-06T02:41:01.691Z,-8.88
2022-12-06T02:43:31.629Z,-8.94
2022-12-06T02:45:59.405Z,-8.98
2022-12-06T02:48:26.056Z,-9.03
2022-12-06T02:51:04.632Z,-9.05
2022-12-06T02:53:32.289Z,-9.08
2022-12-06T02:55:58.951Z,-9.13
2022-12-06T02:58:25.608Z,-9.16
2022-12-06T03:00:54.548Z,-9.20
2022-12-06T03:03:45.497Z,-9.22
2022-12-06T03:06:27.366Z,-9.25
2022-12-06T03:09:06.241Z,-9.27
2022-12-06T03:11:45.352Z,-9.32
2022-12-06T03:14:15.099Z,-9.36
2022-12-06T03:16:47.295Z,-9.40
2022-12-06T03:19:16.196Z,-9.45
2022-12-06T03:21:45.164Z,-9.51
2022-12-06T03:24:13.503Z,-9.55
2022-12-06T03:26:40.128Z,-9.57
2022-12-06T03:29:08.317Z,-9.57
2022-12-06T03:31:36.920Z,-9.59
2022-12-06T03:34:24.911Z,-9.63
2022-12-06T03:36:51.687Z,-9.69
2022-12-06T03:39:28.958Z,-9.71
2022-12-06T03:41:57.455Z,-9.75
2022-12-06T03:44:24.946Z,-9.79
2022-12-06T03:46:54.620Z,-9.81
2022-12-06T03:49:27.123Z,-9.84
2022-12-06T03:51:53.788Z,-9.86
2022-12-06T03:54:20.402Z,-9.91
2022-12-06T03:56:47.083Z,-9.94
2022-12-06T03:59:13.692Z,-9.94
2022-12-06T04:01:40.421Z,-9.96
2022-12-06T04:04:07.153Z,-9.96
2022-12-06T04:06:33.908Z,-10.00
2022-12-06T04:09:19.195Z,-10.06
2022-12-06T04:11:46.002Z,-10.11
2022-12-06T04:14:12.602Z,-10.15
2022-12-06T04:16:57.843Z,-10.16
2022-12-06T04:19:24.494Z,-10.13
2022-12-06T04:22:09.858Z,-10.15
2022-12-06T04:24:36.619Z,-10.20
2022-12-06T04:27:21.890Z,-10.22
2022-12-06T04:30:07.385Z,-10.24
2022-12-06T04:32:52.814Z,-10.26
2022-12-06T04:35:38.089Z,-10.26
2022-12-06T04:38:23.601Z,-10.26
2022-12-06T04:40:50.237Z,-10.27
2022-12-06T04:43:35.750Z,-10.31
2022-12-06T04:46:02.489Z,-10.34
2022-12-06T04:48:29.139Z,-10.35
2022-12-06T04:50:55.776Z,-10.33
2022-12-06T04:53:22.427Z,-10.32
2022-12-06T04:55:49.373Z,-10.32
2022-12-06T04:58:16.062Z,-10.32
2022-12-06T05:00:45.715Z,-10.34
2022-12-06T05:03:13.337Z,-10.40
2022-12-06T05:05:40.023Z,-10.44
2022-12-06T05:08:07.040Z,-10.48
2022-12-06T05:10:34.014Z,-10.51
2022-12-06T05:13:00.917Z,-10.52
2022-12-06T05:15:29.386Z,-10.55
2022-12-06T05:17:56.354Z,-10.54
2022-12-06T05:20:23.174Z,-10.52
2022-12-06T05:22:49.930Z,-10.47
2022-12-06T05:25:17.171Z,-10.42
2022-12-06T05:27:44.779Z,-10.37
2022-12-06T05:30:11.934Z,-10.31
2022-12-06T05:32:39.601Z,-10.23
2022-12-06T05:35:07.040Z,-10.15
2022-12-06T05:37:33.714Z,-10.03
2022-12-06T05:40:00.683Z,-9.94
2022-12-06T05:42:27.474Z,-9.85
2022-12-06T05:44:54.134Z,-9.77
2022-12-06T05:47:20.767Z,-9.68
2022-12-06T05:49:47.427Z,-9.59
2022-12-06T05:52:14.068Z,-9.50
2022-12-06T05:54:40.698Z,-9.42
2022-12-06T05:57:07.329Z,-9.37
2022-12-06T05:59:33.953Z,-9.27
2022-12-06T06:02:00.671Z,-9.17
2022-12-06T06:04:27.529Z,-9.08
2022-12-06T06:06:54.194Z,-9.00
2022-12-06T06:09:21.114Z,-8.94
2022-12-06T06:11:47.787Z,-8.86
2022-12-06T06:14:14.882Z,-8.73
2022-12-06T06:16:41.677Z,-8.64
2022-12-06T06:19:08.349Z,-8.55
2022-12-06T06:21:35.007Z,-8.46
2022-12-06T06:24:01.952Z,-8.37
2022-12-06T06:26:29.790Z,-8.30
2022-12-06T06:28:56.419Z,-8.24
2022-12-06T06:31:23.121Z,-8.19
2022-12-06T06:33:49.958Z,-8.12
2022-12-06T06:36:16.602Z,-8.06
2022-12-06T06:38:43.281Z,-8.01
2022-12-06T06:41:12.310Z,-7.95
2022-12-06T06:43:38.968Z,-7.93
2022-12-06T06:46:09.215Z,-7.88
2022-12-06T06:48:37.415Z,-7.86
2022-12-06T06:51:08.610Z,-7.86
2022-12-06T06:53:35.527Z,-7.84
2022-12-06T06:56:05.535Z,-7.78
2022-12-06T06:58:32.222Z,-7.69
2022-12-06T07:01:00.815Z,-7.62
2022-12-06T07:03:27.729Z,-7.54
2022-12-06T07:06:02.602Z,-7.47
2022-12-06T07:08:30.134Z,-7.40
2022-12-06T07:10:57.183Z,-7.36
2022-12-06T07:13:24.621Z,-7.34
2022-12-06T07:15:51.397Z,-7.31
2022-12-06T07:18:18.267Z,-7.23
2022-12-06T07:20:45.529Z,-7.14
2022-12-06T07:23:13.139Z,-7.04
2022-12-06T07:25:39.822Z,-6.99
2022-12-06T07:28:06.734Z,-6.94
2022-12-06T07:30:33.542Z,-6.87
2022-12-06T07:33:00.345Z,-6.80
2022-12-06T07:35:48.448Z,-6.71
2022-12-06T07:38:13.605Z,-6.62
2022-12-06T07:43:45.787Z,-6.45
2022-12-06T07:46:12.726Z,-6.37
2022-12-06T07:48:39.463Z,-6.33
2022-12-06T07:51:06.320Z,-6.31
2022-12-06T07:53:32.958Z,-6.28
2022-12-06T07:56:06.035Z,-6.23
2022-12-06T07:58:32.652Z,-6.21
2022-12-06T08:00:59.442Z,-6.15
2022-12-06T08:03:26.259Z,-6.05
2022-12-06T08:05:54.714Z,-5.93
2022-12-06T08:08:26.701Z,-5.84
2022-12-06T08:10:54.983Z,-5.78
2022-12-06T08:13:21.662Z,-5.69
2022-12-06T08:15:48.409Z,-5.57
2022-12-06T08:18:15.060Z,-5.47
2022-12-06T08:20:41.734Z,-5.36
2022-12-06T08:23:08.645Z,-5.27
2022-12-06T08:25:35.326Z,-5.18
2022-12-06T08:28:02.006Z,-5.13
2022-12-06T08:30:28.840Z,-5.09
2022-12-06T08:32:55.616Z,-5.06
2022-12-06T08:35:22.253Z,-5.00
2022-12-06T08:37:48.953Z,-4.96
2022-12-06T08:40:15.705Z,-4.89
2022-12-06T08:42:43.461Z,-4.89
2022-12-06T08:45:10.263Z,-4.85
2022-12-06T08:47:36.840Z,-4.80
2022-12-06T08:50:04.121Z,-4.78
2022-12-06T08:52:30.872Z,-4.76
2022-12-06T08:54:57.550Z,-4.70
2022-12-06T08:57:24.282Z,-4.64
2022-12-06T08:59:50.982Z,-4.55
2022-12-06T09:02:17.695Z,-4.46
2022-12-06T09:04:44.562Z,-4.39
2022-12-06T09:07:11.987Z,-4.37
2022-12-06T09:09:39.007Z,-4.39
2022-12-06T09:12:05.844Z,-4.39
2022-12-06T09:14:32.460Z,-4.39
2022-12-06T09:16:59.204Z,-4.34
2022-12-06T09:19:25.989Z,-4.31
2022-12-06T09:21:52.988Z,-4.27
2022-12-06T09:24:19.904Z,-4.22
2022-12-06T09:26:46.815Z,-4.14
2022-12-06T09:29:14.624Z,-4.12
2022-12-06T09:31:41.669Z,-4.13
2022-12-06T09:34:08.913Z,-4.15
2022-12-06T09:36:37.778Z,-4.09
2022-12-06T09:39:41.061Z,-4.03
2022-12-06T09:42:32.783Z,-3.99
2022-12-06T09:45:23.946Z,-3.98
2022-12-06T09:50:28.988Z,-4.00
2022-12-06T09:53:07.604Z,-3.98
2022-12-06T09:56:06.294Z,-3.92
2022-12-06T09:58:51.950Z,-3.93
2022-12-06T10:01:58.406Z,-3.94
2022-12-06T10:04:28.211Z,-3.91
2022-12-06T10:07:19.851Z,-3.91
2022-12-06T10:09:56.234Z,-3.88
2022-12-06T10:12:26.761Z,-3.86
2022-12-06T10:15:02.510Z,-3.85
2022-12-06T10:17:34.100Z,-3.91
2022-12-06T10:20:13.123Z,-3.97
2022-12-06T10:23:09.050Z,-3.94
2022-12-06T10:26:06.934Z,-3.90
2022-12-06T10:28:48.801Z,-3.87
2022-12-06T10:31:27.863Z,-3.85
2022-12-06T10:33:59.059Z,-3.87
2022-12-06T10:36:49.087Z,-3.86
2022-12-06T10:39:28.139Z,-3.87
2022-12-06T10:41:59.395Z,-3.91
2022-12-06T10:44:45.111Z,-3.93
2022-12-06T10:47:14.986Z,-3.93
2022-12-06T10:49:43.737Z,-3.90
2022-12-06T10:52:41.200Z,-3.89
2022-12-06T10:55:11.145Z,-3.91
2022-12-06T10:57:45.971Z,-4.01
2022-12-06T14:28:12.757Z,-5.14
2022-12-06T14:30:39.581Z,-5.14
2022-12-06T14:33:21.714Z,-5.10
2022-12-06T14:35:50.404Z,-5.03
2022-12-06T14:38:24.388Z,-4.94
2022-12-06T14:41:10.054Z,-4.86
2022-12-06T14:43:36.972Z,-4.73
2022-12-06T14:46:09.842Z,-4.64
2022-12-06T14:48:56.780Z,-4.57
2022-12-06T14:51:33.855Z,-4.47
2022-12-06T14:54:20.401Z,-4.37
2022-12-06T14:56:47.310Z,-4.28
2022-12-06T14:59:16.527Z,-4.22
2022-12-06T15:01:50.156Z,-4.17
2022-12-06T15:04:37.613Z,-4.10
2022-12-06T15:07:04.574Z,-4.03
2022-12-06T15:09:31.690Z,-4.00
2022-12-06T15:12:40.761Z,-3.96
2022-12-06T15:15:43.775Z,-3.93
2022-12-06T15:18:13.282Z,-3.92
2022-12-06T15:20:40.185Z,-3.95
2022-12-06T15:23:29.151Z,-3.97
2022-12-06T15:25:55.823Z,-3.94
2022-12-06T15:28:22.664Z,-3.93
2022-12-06T15:30:49.367Z,-3.90
2022-12-06T15:33:21.027Z,-3.84
2022-12-06T15:35:47.707Z,-3.80
2022-12-06T15:38:14.346Z,-3.78
2022-12-06T15:40:42.139Z,-3.81
2022-12-06T15:43:23.105Z,-3.81
2022-12-06T15:45:49.802Z,-3.77
2022-12-06T15:48:16.514Z,-3.75
2022-12-06T15:50:43.214Z,-3.73
2022-12-06T15:53:17.390Z,-3.69
2022-12-06T15:55:44.197Z,-3.69
2022-12-06T15:58:11.057Z,-3.71
2022-12-06T16:00:37.896Z,-3.70
2022-12-06T16:03:04.539Z,-3.69
2022-12-06T16:05:31.299Z,-3.65
2022-12-06T16:07:57.946Z,-3.64
2022-12-06T16:10:37.125Z,-3.67
2022-12-06T16:13:21.317Z,-3.63
2022-12-06T16:15:48.312Z,-3.67
2022-12-06T16:18:15.087Z,-3.70
2022-12-06T16:20:41.852Z,-3.68
2022-12-06T16:24:04.173Z,-3.69
2022-12-06T16:26:19.095Z,-3.72
2022-12-06T16:28:45.793Z,-3.78
2022-12-06T16:31:15.403Z,-3.80
2022-12-06T16:33:42.259Z,-3.78
2022-12-06T16:36:19.295Z,-3.77
2022-12-06T16:39:05.960Z,-3.80
2022-12-06T16:41:34.663Z,-3.79
2022-12-06T16:44:02.076Z,-3.81
2022-12-06T16:46:36.152Z,-3.82
2022-12-06T16:49:43.743Z,-3.83
2022-12-06T16:51:53.994Z,-3.88
2022-12-06T16:54:20.773Z,-3.96
2022-12-06T16:56:47.413Z,-4.01
2022-12-06T16:59:14.923Z,-4.02
2022-12-06T17:01:52.186Z,-4.03
2022-12-06T17:04:18.912Z,-4.04
2022-12-06T17:06:45.725Z,-4.04
2022-12-06T17:09:12.596Z,-4.07
2022-12-06T17:11:58.723Z,-4.08
2022-12-06T17:14:25.656Z,-4.06
2022-12-06T17:16:52.632Z,-4.08
2022-12-06T17:19:21.300Z,-4.08
2022-12-06T17:21:48.354Z,-4.10
2022-12-06T17:24:16.887Z,-4.13
2022-12-06T17:26:43.648Z,-4.13
2022-12-06T17:29:10.547Z,-4.11
2022-12-06T17:31:37.548Z,-4.11
2022-12-06T17:34:04.465Z,-4.13
2022-12-06T17:36:31.508Z,-4.14
2022-12-06T17:38:58.136Z,-4.13
2022-12-06T17:41:48.503Z,-4.12
2022-12-06T17:44:18.183Z,-4.12
2022-12-06T17:46:44.834Z,-4.12
2022-12-06T17:49:16.384Z,-4.13
2022-12-06T17:51:43.043Z,-4.14
2022-12-06T17:54:09.790Z,-4.15
2022-12-06T17:56:37.985Z,-4.14
2022-12-06T17:59:06.286Z,-4.11
2022-12-06T18:01:58.177Z,-4.09
2022-12-06T18:04:20.342Z,-4.12
2022-12-06T18:06:46.983Z,-4.14
2022-12-06T18:09:14.666Z,-4.13
2022-12-06T18:11:41.590Z,-4.11
2022-12-06T18:14:10.111Z,-4.07
2022-12-06T18:16:37.954Z,-4.06
2022-12-06T18:19:12.705Z,-4.06
2022-12-06T18:21:39.785Z,-4.05
2022-12-06T18:24:24.635Z,-4.05
2022-12-06T18:26:54.940Z,-4.04
2022-12-06T18:29:22.893Z,-4.03
2022-12-06T18:31:50.214Z,-3.99
2022-12-06T18:34:17.199Z,-3.99
2022-12-06T18:36:43.942Z,-3.99
2022-12-06T18:39:16.043Z,-4.01
2022-12-06T18:41:43.898Z,-4.05
2022-12-06T18:44:10.873Z,-4.06
2022-12-06T18:46:39.031Z,-4.03
2022-12-06T18:49:06.412Z,-4.03
2022-12-06T18:51:34.173Z,-4.04
2022-12-06T18:54:02.463Z,-4.05
2022-12-06T18:56:30.266Z,-4.08
2022-12-06T18:59:01.194Z,-4.10
2022-12-06T19:01:29.672Z,-4.11
2022-12-06T19:03:57.371Z,-4.12
2022-12-06T19:06:25.226Z,-4.13
2022-12-06T19:08:52.841Z,-4.14
2022-12-06T19:11:19.720Z,-4.16
2022-12-06T19:13:55.806Z,-4.16
2022-12-06T19:16:27.323Z,-4.14
2022-12-06T19:18:58.617Z,-4.12
2022-12-06T19:21:25.644Z,-4.13
2022-12-06T19:23:53.687Z,-4.13
2022-12-06T19:26:21.026Z,-4.14
2022-12-06T19:28:48.073Z,-4.16
2022-12-06T19:31:15.066Z,-4.18
2022-12-06T19:33:43.356Z,-4.15
2022-12-06T19:36:21.297Z,-4.14
2022-12-06T19:38:48.048Z,-4.14
2022-12-06T19:41:16.575Z,-4.14
2022-12-06T19:44:02.131Z,-4.17
2022-12-06T19:46:29.717Z,-4.23
2022-12-06T19:48:57.081Z,-4.26
2022-12-06T19:51:26.721Z,-4.27
2022-12-06T19:53:53.434Z,-4.28
2022-12-06T19:56:20.266Z,-4.27
2022-12-06T19:58:47.261Z,-4.28
2022-12-06T20:01:15.961Z,-4.26
2022-12-06T20:03:43.387Z,-4.26
2022-12-06T20:06:19.772Z,-4.26
2022-12-06T20:08:46.599Z,-4.26
2022-12-06T20:11:33.783Z,-4.26
2022-12-06T20:14:01.275Z,-4.26
2022-12-06T20:16:27.969Z,-4.23
2022-12-06T20:18:54.704Z,-4.21
2022-12-06T20:21:21.531Z,-4.18
2022-12-06T20:23:48.157Z,-4.15
2022-12-06T20:26:15.280Z,-4.15
2022-12-06T20:28:43.165Z,-4.15
2022-12-06T20:31:16.262Z,-4.16
2022-12-06T20:33:43.082Z,-4.20
2022-12-06T20:36:12.990Z,-4.24
2022-12-06T20:38:39.704Z,-4.24
2022-12-06T20:41:09.848Z,-4.26
2022-12-06T20:43:36.784Z,-4.28
2022-12-06T20:46:13.183Z,-4.33
2022-12-06T20:48:42.119Z,-4.40
2022-12-06T20:51:19.600Z,-4.44
2022-12-06T20:53:49.437Z,-4.50
2022-12-06T20:56:18.282Z,-4.54
2022-12-06T20:58:45.921Z,-4.55
2022-12-06T21:01:19.031Z,-4.52
2022-12-06T21:03:46.618Z,-4.51
2022-12-06T21:06:13.556Z,-4.53
2022-12-06T21:08:40.318Z,-4.57
2022-12-06T21:11:22.641Z,-4.62
2022-12-06T21:13:53.111Z,-4.63
2022-12-06T21:16:22.298Z,-4.63
2022-12-06T21:18:54.405Z,-4.60
2022-12-06T21:21:23.273Z,-4.58
2022-12-06T21:23:50.016Z,-4.56
2022-12-06T21:26:16.642Z,-4.60
2022-12-06T21:28:43.360Z,-4.56
2022-12-06T21:31:10.129Z,-4.56
2022-12-06T21:33:36.836Z,-4.58
2022-12-06T21:36:06.718Z,-4.58
2022-12-06T21:38:33.759Z,-4.59
2022-12-06T21:41:12.053Z,-4.58
2022-12-06T21:43:38.900Z,-4.56
2022-12-06T21:46:13.969Z,-4.56
2022-12-06T21:48:41.171Z,-4.55
2022-12-06T21:51:10.764Z,-4.51
2022-12-06T21:53:37.613Z,-4.47
2022-12-06T21:56:27.105Z,-4.45
2022-12-06T21:58:54.234Z,-4.38
2022-12-06T22:01:24.882Z,-4.38
2022-12-06T22:03:52.606Z,-4.35
2022-12-06T22:06:19.518Z,-4.30
2022-12-06T22:08:46.378Z,-4.27
2022-12-06T22:11:17.563Z,-4.26
2022-12-06T22:13:44.567Z,-4.22
2022-12-06T22:16:11.748Z,-4.15
2022-12-06T22:18:44.790Z,-4.10
2022-12-06T22:21:16.294Z,-4.08
2022-12-06T22:23:43.156Z,-4.07
2022-12-06T22:26:10.704Z,-4.09
2022-12-06T22:28:37.348Z,-4.08
2022-12-06T22:31:17.398Z,-4.07
2022-12-06T22:33:44.173Z,-4.01
2022-12-06T22:36:10.946Z,-3.99
2022-12-06T22:38:37.729Z,-3.98
2022-12-06T22:41:04.483Z,-3.98
2022-12-06T22:43:31.319Z,-4.00
2022-12-06T22:46:09.003Z,-3.98
2022-12-06T22:48:35.747Z,-3.92
2022-12-06T22:51:09.463Z,-3.90
2022-12-06T22:53:36.246Z,-3.90
2022-12-06T22:56:02.916Z,-3.88
2022-12-06T22:58:29.574Z,-3.83
2022-12-06T23:00:56.287Z,-3.79
2022-12-06T23:03:23.017Z,-3.82
2022-12-06T23:05:59.326Z,-3.84
2022-12-06T23:08:26.416Z,-3.86
2022-12-06T23:11:06.566Z,-3.94
2022-12-06T23:13:33.389Z,-3.98
2022-12-06T23:16:04.694Z,-3.99
2022-12-06T23:18:31.562Z,-3.96
2022-12-06T23:21:15.228Z,-3.93
2022-12-06T23:23:46.438Z,-3.93
2022-12-06T23:26:15.281Z,-3.94
2022-12-06T23:28:42.110Z,-3.94
2022-12-06T23:31:13.016Z,-3.94
2022-12-06T23:33:40.428Z,-3.92
2022-12-06T23:36:12.076Z,-3.96
2022-12-06T23:38:38.934Z,-3.99
2022-12-06T23:41:09.912Z,-4.00
2022-12-06T23:43:36.808Z,-4.03
2022-12-06T23:46:07.484Z,-4.01
2022-12-06T23:48:34.946Z,-4.01
2022-12-06T23:51:02.936Z,-4.00
2022-12-06T23:53:30.281Z,-3.95
2022-12-06T23:55:58.837Z,-3.90
2022-12-06T23:58:26.223Z,-3.86
